TimeCEST,TemperatureF,Dew PointF,Humidity,Sea Level PressureIn,VisibilityMPH,Wind Direction,Wind SpeedMPH,Gust SpeedMPH,PrecipitationIn,Events,Conditions,WindDirDegrees,DateUTC
12:00 AM,58,56,90,30.10,12,NE,2.2,,,Rain,Light Rain,50,2013-09-07 22:00:00
12:20 AM,59.0,57.2,94,30.06,6.2,North,2.3,-,N/A,Rain,Light Rain,360,2013-09-07 22:20:00
12:50 AM,59.0,57.2,94,30.06,6.2,Variable,2.3,-,N/A,Rain,Light Rain,0,2013-09-07 22:50:00
1:00 AM,59,57,91,30.08,11,WNW,2.2,,,,Overcast,300,2013-09-07 23:00:00
1:20 AM,59.0,57.2,94,30.06,6.2,NNE,3.5,-,N/A,,Mostly Cloudy,20,2013-09-07 23:20:00
1:50 AM,59.0,57.2,94,30.06,6.2,NW,3.5,-,N/A,,Mostly Cloudy,310,2013-09-07 23:50:00
2:00 AM,59,57,92,30.07,9,WNW,4.5,,,,Partly Cloudy,300,2013-09-08 00:00:00
2:20 AM,59.0,57.2,94,30.04,6.2,NW,4.6,-,N/A,,Mostly Cloudy,320,2013-09-08 00:20:00
2:50 AM,59.0,57.2,94,30.04,6.2,NNW,6.9,-,N/A,,Mostly Cloudy,330,2013-09-08 00:50:00
3:00 AM,59,57,90,30.06,12,North,6.7,,,Rain,Light Rain,350,2013-09-08 01:00:00
3:20 AM,59.0,57.2,94,30.04,6.2,North,5.8,-,N/A,,Mostly Cloudy,350,2013-09-08 01:20:00
3:50 AM,59.0,57.2,94,30.04,6.2,North,6.9,-,N/A,,Mostly Cloudy,360,2013-09-08 01:50:00
4:00 AM,59,56,88,30.04,12,North,6.7,,,,Overcast,10,2013-09-08 02:00:00
4:20 AM,59.0,55.4,88,30.01,6.2,NNW,8.1,-,N/A,,Mostly Cloudy,330,2013-09-08 02:20:00
4:50 AM,59.0,55.4,88,30.01,6.2,WNW,8.1,-,N/A,,Mostly Cloudy,300,2013-09-08 02:50:00
5:20 AM,59.0,55.4,88,30.01,3.7,NW,9.2,-,N/A,Rain,Rain,310,2013-09-08 03:20:00
5:50 AM,59.0,57.2,94,30.01,2.2,WNW,10.4,-,N/A,Rain,Rain,300,2013-09-08 03:50:00
6:00 AM,58,56,92,30.01,2,WNW,8.9,,,Rain,Heavy Rain,300,2013-09-08 04:00:00
6:20 AM,57.2,55.4,94,30.01,2.5,West,12.7,-,N/A,Rain,Rain,280,2013-09-08 04:20:00
6:50 AM,57.2,55.4,94,30.04,2.5,West,4.6,-,N/A,Rain-Thunderstorm,Drizzle,280,2013-09-08 04:50:00
7:00 AM,56,54,93,30.06,2,West,4.5,,,Rain-Thunderstorm,Thunderstorms and Rain,280,2013-09-08 05:00:00
7:20 AM,55.4,55.4,100,30.01,2.5,WNW,6.9,-,N/A,Rain,Rain,290,2013-09-08 05:20:00
7:50 AM,55.4,53.6,94,30.01,2.2,NW,9.2,-,N/A,Rain,Rain,320,2013-09-08 05:50:00
8:00 AM,55,54,96,30.03,2,NW,8.9,,,Rain,Heavy Rain,320,2013-09-08 06:00:00
8:20 AM,55.4,53.6,94,30.01,2.5,NNW,11.5,-,N/A,Rain,Rain,340,2013-09-08 06:20:00
8:50 AM,55.4,53.6,94,30.04,3.1,North,9.2,-,N/A,Rain,Light Rain,350,2013-09-08 06:50:00
9:00 AM,56,54,91,30.05,3,North,8.9,,,Rain,Light Rain,350,2013-09-08 07:00:00
9:20 AM,57.2,53.6,88,30.04,5.0,NNW,5.8,-,N/A,Rain,Light Rain,340,2013-09-08 07:20:00
9:50 AM,57.2,53.6,88,30.06,5.0,WNW,6.9,-,N/A,,Mostly Cloudy,290,2013-09-08 07:50:00
10:00 AM,56,54,92,30.08,5,WNW,6.7,,,Rain,Light Rain,290,2013-09-08 08:00:00
10:20 AM,55.4,53.6,94,30.06,5.0,West,9.2,-,N/A,,Mostly Cloudy,260,2013-09-08 08:20:00
10:50 AM,55.4,53.6,94,30.09,5.6,West,8.1,-,N/A,,Mostly Cloudy,270,2013-09-08 08:50:00
11:20 AM,55.4,51.8,88,30.09,5.0,West,10.4,-,N/A,Rain,Light Rain Showers,280,2013-09-08 09:20:00
11:50 AM,53.6,51.8,94,30.12,3.1,WNW,8.1,-,N/A,Rain,Light Rain,300,2013-09-08 09:50:00
12:00 PM,54,52,89,30.12,3,WNW,6.7,,,Rain,Light Rain,300,2013-09-08 10:00:00
12:20 PM,55.4,53.6,94,30.12,2.5,WNW,6.9,-,N/A,Rain,Light Rain,300,2013-09-08 10:20:00
12:50 PM,55.4,53.6,94,30.12,4.3,NW,5.8,-,N/A,Rain,Light Rain,320,2013-09-08 10:50:00
1:00 PM,55,54,93,30.13,4,NW,6.7,,,Rain,Light Rain,320,2013-09-08 11:00:00
1:20 PM,55.4,53.6,94,30.12,5.6,NW,8.1,-,N/A,,Mostly Cloudy,320,2013-09-08 11:20:00
1:50 PM,55.4,53.6,94,30.12,6.2,North,6.9,-,N/A,,Mostly Cloudy,350,2013-09-08 11:50:00
2:00 PM,56,54,89,30.13,7,North,6.7,,,Rain,Light Rain,350,2013-09-08 12:00:00
2:20 PM,57.2,53.6,88,30.12,6.2,NE,5.8,-,N/A,,Mostly Cloudy,50,2013-09-08 12:20:00
2:50 PM,57.2,53.6,88,30.12,6.2,East,8.1,-,N/A,,Mostly Cloudy,90,2013-09-08 12:50:00
3:00 PM,57,54,87,30.13,12,East,6.7,,,,Mostly Cloudy,100,2013-09-08 13:00:00
3:20 PM,59.0,53.6,82,30.12,6.2,East,4.6,-,N/A,,Mostly Cloudy,100,2013-09-08 13:20:00
3:50 PM,59.0,53.6,82,30.12,6.2,SE,4.6,-,N/A,,Mostly Cloudy,140,2013-09-08 13:50:00
4:00 PM,60,54,75,30.14,16,SE,4.5,,,,Mostly Cloudy,140,2013-09-08 14:00:00
4:20 PM,60.8,53.6,77,30.12,6.2,Variable,3.5,-,N/A,,Mostly Cloudy,0,2013-09-08 14:20:00
4:50 PM,60.8,53.6,77,30.12,6.2,SE,1.2,-,N/A,,Mostly Cloudy,140,2013-09-08 14:50:00
5:20 PM,60.8,53.6,77,30.12,6.2,SW,3.5,-,N/A,,Mostly Cloudy,230,2013-09-08 15:20:00
5:50 PM,62.6,53.6,72,30.12,6.2,Variable,3.5,-,N/A,,Mostly Cloudy,0,2013-09-08 15:50:00
6:00 PM,62,52,62,30.14,22,South,2.2,,,,Mostly Cloudy,180,2013-09-08 16:00:00
6:20 PM,62.6,53.6,72,30.12,6.2,SE,1.2,-,N/A,,Mostly Cloudy,140,2013-09-08 16:20:00
6:50 PM,62.6,51.8,68,30.12,6.2,North,1.2,-,N/A,,Mostly Cloudy,10,2013-09-08 16:50:00
7:00 PM,62,51,58,30.13,22,North,2.2,,,,Partly Cloudy,10,2013-09-08 17:00:00
7:20 PM,60.8,51.8,72,30.09,6.2,NE,4.6,-,N/A,,Mostly Cloudy,50,2013-09-08 17:20:00
7:50 PM,59.0,51.8,77,30.09,-9999.0,East,6.9,-,N/A,,Clear,100,2013-09-08 17:50:00
8:00 PM,59,52,71,30.12,25,ESE,4.5,,,,Scattered Clouds,120,2013-09-08 18:00:00
8:20 PM,59.0,53.6,82,30.09,-9999.0,ESE,4.6,-,N/A,,Clear,120,2013-09-08 18:20:00
8:50 PM,59.0,53.6,82,30.09,-9999.0,East,3.5,-,N/A,,Clear,100,2013-09-08 18:50:00
9:00 PM,57,54,85,30.12,25,ENE,2.2,,,,Scattered Clouds,70,2013-09-08 19:00:00
9:20 PM,57.2,53.6,88,30.12,-9999.0,ESE,3.5,-,N/A,,Clear,120,2013-09-08 19:20:00
9:50 PM,57.2,53.6,88,30.12,-9999.0,SE,4.6,-,N/A,,Clear,140,2013-09-08 19:50:00
10:00 PM,56,54,90,30.13,25,SE,4.5,,,,Scattered Clouds,140,2013-09-08 20:00:00
10:20 PM,57.2,53.6,88,30.12,-9999.0,SSE,3.5,-,N/A,,Clear,160,2013-09-08 20:20:00
10:50 PM,55.4,53.6,94,30.09,-9999.0,East,4.6,-,N/A,,Clear,100,2013-09-08 20:50:00
11:20 PM,55.4,53.6,94,30.09,-9999.0,NE,1.2,-,N/A,,Clear,50,2013-09-08 21:20:00
11:50 PM,55.4,53.6,94,30.09,-9999.0,Variable,1.2,-,N/A,,Clear,0,2013-09-08 21:50:00